sensor_id;sensor_type;location;lat;lon;timestamp;P1;durP1;ratioP1;P2;durP2;ratioP2
9140;SDS011;46330;50.822;7.126;2023-10-31T00:02:02;0.68;;;0.60;;
9140;SDS011;46330;50.822;7.126;2023-10-31T00:04:30;0.60;;;0.60;;
9140;SDS011;46330;50.822;7.126;2023-10-31T00:06:58;0.60;;;0.57;;
9140;SDS011;46330;50.822;7.126;2023-10-31T00:09:26;0.80;;;0.80;;
9140;SDS011;46330;50.822;7.126;2023-10-31T00:11:54;1.65;;;0.90;;
9140;SDS011;46330;50.822;7.126;2023-10-31T00:14:23;0.85;;;0.85;;
9140;SDS011;46330;50.822;7.126;2023-10-31T00:16:57;0.70;;;0.70;;
9140;SDS011;46330;50.822;7.126;2023-10-31T00:19:25;0.88;;;0.82;;
9140;SDS011;46330;50.822;7.126;2023-10-31T00:21:53;1.20;;;0.85;;
9140;SDS011;46330;50.822;7.126;2023-10-31T00:24:21;0.90;;;0.90;;
9140;SDS011;46330;50.822;7.126;2023-10-31T00:26:48;0.77;;;0.77;;
9140;SDS011;46330;50.822;7.126;2023-10-31T00:29:16;0.90;;;0.80;;
9140;SDS011;46330;50.822;7.126;2023-10-31T00:31:46;0.80;;;0.80;;
9140;SDS011;46330;50.822;7.126;2023-10-31T00:34:14;1.35;;;0.88;;
9140;SDS011;46330;50.822;7.126;2023-10-31T00:36:42;0.80;;;0.80;;
9140;SDS011;46330;50.822;7.126;2023-10-31T00:39:10;0.70;;;0.65;;
9140;SDS011;46330;50.822;7.126;2023-10-31T00:41:38;0.80;;;0.80;;
9140;SDS011;46330;50.822;7.126;2023-10-31T00:44:10;1.55;;;0.90;;
9140;SDS011;46330;50.822;7.126;2023-10-31T00:46:38;0.82;;;0.82;;
9140;SDS011;46330;50.822;7.126;2023-10-31T00:49:09;2.58;;;0.93;;
9140;SDS011;46330;50.822;7.126;2023-10-31T00:51:36;0.82;;;0.80;;
9140;SDS011;46330;50.822;7.126;2023-10-31T00:54:04;1.00;;;1.00;;
9140;SDS011;46330;50.822;7.126;2023-10-31T00:56:33;1.20;;;1.10;;
9140;SDS011;46330;50.822;7.126;2023-10-31T00:59:01;1.23;;;0.90;;
9140;SDS011;46330;50.822;7.126;2023-10-31T01:01:29;1.35;;;1.20;;
9140;SDS011;46330;50.822;7.126;2023-10-31T01:03:57;0.80;;;0.80;;
9140;SDS011;46330;50.822;7.126;2023-10-31T01:06:26;0.93;;;0.93;;
9140;SDS011;46330;50.822;7.126;2023-10-31T01:08:54;1.17;;;1.02;;
9140;SDS011;46330;50.822;7.126;2023-10-31T01:11:22;2.10;;;1.20;;
9140;SDS011;46330;50.822;7.126;2023-10-31T01:13:50;1.15;;;1.05;;
9140;SDS011;46330;50.822;7.126;2023-10-31T01:16:18;1.05;;;0.95;;
9140;SDS011;46330;50.822;7.126;2023-10-31T01:18:46;2.20;;;1.00;;
9140;SDS011;46330;50.822;7.126;2023-10-31T01:21:14;1.02;;;1.00;;
9140;SDS011;46330;50.822;7.126;2023-10-31T01:23:43;2.15;;;1.30;;
9140;SDS011;46330;50.822;7.126;2023-10-31T01:26:11;1.48;;;1.08;;
9140;SDS011;46330;50.822;7.126;2023-10-31T01:28:39;3.63;;;1.50;;
9140;SDS011;46330;50.822;7.126;2023-10-31T01:31:07;1.30;;;1.10;;
9140;SDS011;46330;50.822;7.126;2023-10-31T01:33:35;1.75;;;1.05;;
9140;SDS011;46330;50.822;7.126;2023-10-31T01:36:06;0.93;;;0.77;;
9140;SDS011;46330;50.822;7.126;2023-10-31T01:38:36;1.08;;;0.93;;
9140;SDS011;46330;50.822;7.126;2023-10-31T01:41:05;3.88;;;1.10;;
9140;SDS011;46330;50.822;7.126;2023-10-31T01:43:34;2.13;;;1.05;;
9140;SDS011;46330;50.822;7.126;2023-10-31T01:46:03;1.83;;;1.00;;
9140;SDS011;46330;50.822;7.126;2023-10-31T01:48:32;1.83;;;1.00;;
9140;SDS011;46330;50.822;7.126;2023-10-31T01:51:01;1.95;;;0.90;;
9140;SDS011;46330;50.822;7.126;2023-10-31T01:53:31;1.02;;;0.90;;
9140;SDS011;46330;50.822;7.126;2023-10-31T01:56:00;1.45;;;0.98;;
9140;SDS011;46330;50.822;7.126;2023-10-31T01:58:32;1.50;;;1.20;;
9140;SDS011;46330;50.822;7.126;2023-10-31T02:01:03;1.40;;;1.00;;
9140;SDS011;46330;50.822;7.126;2023-10-31T02:03:32;5.55;;;1.73;;
9140;SDS011;46330;50.822;7.126;2023-10-31T02:06:00;3.55;;;1.33;;
9140;SDS011;46330;50.822;7.126;2023-10-31T02:08:29;4.57;;;1.25;;
9140;SDS011;46330;50.822;7.126;2023-10-31T02:10:57;2.13;;;1.08;;
9140;SDS011;46330;50.822;7.126;2023-10-31T02:13:25;2.58;;;1.35;;
9140;SDS011;46330;50.822;7.126;2023-10-31T02:15:54;1.58;;;1.02;;
9140;SDS011;46330;50.822;7.126;2023-10-31T02:18:22;3.08;;;1.10;;
9140;SDS011;46330;50.822;7.126;2023-10-31T02:20:50;2.42;;;1.20;;
9140;SDS011;46330;50.822;7.126;2023-10-31T02:23:20;3.75;;;1.25;;
9140;SDS011;46330;50.822;7.126;2023-10-31T02:25:48;2.97;;;1.20;;
9140;SDS011;46330;50.822;7.126;2023-10-31T02:28:16;1.50;;;1.10;;
9140;SDS011;46330;50.822;7.126;2023-10-31T02:30:44;2.13;;;1.20;;
9140;SDS011;46330;50.822;7.126;2023-10-31T02:33:12;2.22;;;1.20;;
9140;SDS011;46330;50.822;7.126;2023-10-31T02:35:40;3.28;;;1.33;;
9140;SDS011;46330;50.822;7.126;2023-10-31T02:38:08;2.80;;;1.10;;
9140;SDS011;46330;50.822;7.126;2023-10-31T02:40:37;3.22;;;1.33;;
9140;SDS011;46330;50.822;7.126;2023-10-31T02:43:05;4.20;;;1.23;;
9140;SDS011;46330;50.822;7.126;2023-10-31T02:45:33;4.38;;;1.48;;
9140;SDS011;46330;50.822;7.126;2023-10-31T02:48:01;6.18;;;2.20;;
9140;SDS011;46330;50.822;7.126;2023-10-31T02:50:29;9.65;;;2.30;;
9140;SDS011;46330;50.822;7.126;2023-10-31T02:52:57;9.25;;;2.58;;
9140;SDS011;46330;50.822;7.126;2023-10-31T02:55:25;7.25;;;2.35;;
9140;SDS011;46330;50.822;7.126;2023-10-31T02:57:54;4.22;;;1.77;;
9140;SDS011;46330;50.822;7.126;2023-10-31T03:00:22;3.90;;;1.90;;
9140;SDS011;46330;50.822;7.126;2023-10-31T03:02:50;8.07;;;2.00;;
9140;SDS011;46330;50.822;7.126;2023-10-31T03:05:18;4.03;;;1.60;;
9140;SDS011;46330;50.822;7.126;2023-10-31T03:07:46;4.07;;;1.70;;
9140;SDS011;46330;50.822;7.126;2023-10-31T03:10:14;3.65;;;1.52;;
9140;SDS011;46330;50.822;7.126;2023-10-31T03:12:42;4.78;;;1.50;;
9140;SDS011;46330;50.822;7.126;2023-10-31T03:15:11;2.35;;;1.60;;
9140;SDS011;46330;50.822;7.126;2023-10-31T03:17:40;2.80;;;1.70;;
9140;SDS011;46330;50.822;7.126;2023-10-31T03:20:08;3.45;;;1.55;;
9140;SDS011;46330;50.822;7.126;2023-10-31T03:22:37;3.03;;;1.77;;
9140;SDS011;46330;50.822;7.126;2023-10-31T03:25:05;5.55;;;1.80;;
9140;SDS011;46330;50.822;7.126;2023-10-31T03:27:34;3.70;;;1.63;;
9140;SDS011;46330;50.822;7.126;2023-10-31T03:30:02;4.18;;;1.80;;
9140;SDS011;46330;50.822;7.126;2023-10-31T03:32:33;2.53;;;2.05;;
9140;SDS011;46330;50.822;7.126;2023-10-31T03:35:02;2.70;;;1.80;;
9140;SDS011;46330;50.822;7.126;2023-10-31T03:37:30;5.70;;;1.70;;
9140;SDS011;46330;50.822;7.126;2023-10-31T03:39:58;9.15;;;4.47;;
9140;SDS011;46330;50.822;7.126;2023-10-31T03:42:26;7.53;;;2.72;;
9140;SDS011;46330;50.822;7.126;2023-10-31T03:44:55;4.13;;;2.30;;
9140;SDS011;46330;50.822;7.126;2023-10-31T03:47:23;4.63;;;1.63;;
9140;SDS011;46330;50.822;7.126;2023-10-31T03:49:52;4.55;;;1.52;;
9140;SDS011;46330;50.822;7.126;2023-10-31T03:52:20;6.03;;;1.40;;
9140;SDS011;46330;50.822;7.126;2023-10-31T03:54:48;4.47;;;1.70;;
9140;SDS011;46330;50.822;7.126;2023-10-31T03:57:16;5.60;;;1.90;;
9140;SDS011;46330;50.822;7.126;2023-10-31T03:59:44;3.65;;;1.77;;
9140;SDS011;46330;50.822;7.126;2023-10-31T04:02:11;4.22;;;1.90;;
9140;SDS011;46330;50.822;7.126;2023-10-31T04:04:41;2.92;;;1.80;;
9140;SDS011;46330;50.822;7.126;2023-10-31T04:07:10;6.35;;;2.78;;
9140;SDS011;46330;50.822;7.126;2023-10-31T04:09:38;2.92;;;1.67;;
9140;SDS011;46330;50.822;7.126;2023-10-31T04:12:06;5.30;;;1.85;;
9140;SDS011;46330;50.822;7.126;2023-10-31T04:14:34;2.65;;;1.70;;
9140;SDS011;46330;50.822;7.126;2023-10-31T04:17:03;4.80;;;1.80;;
9140;SDS011;46330;50.822;7.126;2023-10-31T04:19:31;3.67;;;2.17;;
9140;SDS011;46330;50.822;7.126;2023-10-31T04:21:59;5.55;;;2.35;;
9140;SDS011;46330;50.822;7.126;2023-10-31T04:24:28;8.88;;;3.38;;
9140;SDS011;46330;50.822;7.126;2023-10-31T04:26:57;5.15;;;3.40;;
9140;SDS011;46330;50.822;7.126;2023-10-31T04:29:25;5.68;;;3.30;;
9140;SDS011;46330;50.822;7.126;2023-10-31T04:31:53;8.40;;;3.10;;
9140;SDS011;46330;50.822;7.126;2023-10-31T04:34:21;6.05;;;2.70;;
9140;SDS011;46330;50.822;7.126;2023-10-31T04:36:49;6.13;;;2.10;;
9140;SDS011;46330;50.822;7.126;2023-10-31T04:39:17;4.00;;;2.10;;
9140;SDS011;46330;50.822;7.126;2023-10-31T04:41:46;3.38;;;2.00;;
9140;SDS011;46330;50.822;7.126;2023-10-31T04:44:14;6.07;;;1.80;;
9140;SDS011;46330;50.822;7.126;2023-10-31T04:46:43;5.55;;;1.88;;
9140;SDS011;46330;50.822;7.126;2023-10-31T04:49:11;4.22;;;1.63;;
9140;SDS011;46330;50.822;7.126;2023-10-31T04:51:39;4.18;;;1.55;;
9140;SDS011;46330;50.822;7.126;2023-10-31T04:54:07;5.85;;;3.50;;
9140;SDS011;46330;50.822;7.126;2023-10-31T04:56:35;4.05;;;1.98;;
9140;SDS011;46330;50.822;7.126;2023-10-31T04:59:05;5.45;;;2.50;;
9140;SDS011;46330;50.822;7.126;2023-10-31T05:01:33;2.85;;;1.67;;
9140;SDS011;46330;50.822;7.126;2023-10-31T05:04:01;2.15;;;1.23;;
9140;SDS011;46330;50.822;7.126;2023-10-31T05:06:38;1.80;;;1.20;;
9140;SDS011;46330;50.822;7.126;2023-10-31T05:09:06;2.97;;;1.40;;
9140;SDS011;46330;50.822;7.126;2023-10-31T05:11:35;3.40;;;1.25;;
9140;SDS011;46330;50.822;7.126;2023-10-31T05:14:04;4.65;;;2.10;;
9140;SDS011;46330;50.822;7.126;2023-10-31T05:16:38;4.35;;;1.80;;
9140;SDS011;46330;50.822;7.126;2023-10-31T05:19:07;2.08;;;1.45;;
9140;SDS011;46330;50.822;7.126;2023-10-31T05:21:35;4.07;;;1.88;;
9140;SDS011;46330;50.822;7.126;2023-10-31T05:24:03;5.72;;;2.30;;
9140;SDS011;46330;50.822;7.126;2023-10-31T05:26:31;0.90;;;0.90;;
9140;SDS011;46330;50.822;7.126;2023-10-31T05:28:59;2.30;;;0.82;;
9140;SDS011;46330;50.822;7.126;2023-10-31T05:31:29;0.90;;;0.70;;
9140;SDS011;46330;50.822;7.126;2023-10-31T05:33:57;0.88;;;0.82;;
9140;SDS011;46330;50.822;7.126;2023-10-31T05:36:25;0.95;;;0.93;;
9140;SDS011;46330;50.822;7.126;2023-10-31T05:38:54;0.98;;;0.90;;
9140;SDS011;46330;50.822;7.126;2023-10-31T05:41:22;1.35;;;1.00;;
9140;SDS011;46330;50.822;7.126;2023-10-31T05:43:50;2.88;;;1.40;;
9140;SDS011;46330;50.822;7.126;2023-10-31T05:46:18;2.20;;;1.20;;
9140;SDS011;46330;50.822;7.126;2023-10-31T05:48:47;1.98;;;1.30;;
9140;SDS011;46330;50.822;7.126;2023-10-31T05:51:17;1.38;;;1.20;;
9140;SDS011;46330;50.822;7.126;2023-10-31T05:53:46;1.38;;;1.13;;
9140;SDS011;46330;50.822;7.126;2023-10-31T05:56:15;4.40;;;1.27;;
9140;SDS011;46330;50.822;7.126;2023-10-31T05:58:43;2.50;;;1.77;;
9140;SDS011;46330;50.822;7.126;2023-10-31T06:01:11;3.67;;;1.58;;
9140;SDS011;46330;50.822;7.126;2023-10-31T06:03:40;2.22;;;1.30;;
9140;SDS011;46330;50.822;7.126;2023-10-31T06:06:11;2.90;;;1.13;;
9140;SDS011;46330;50.822;7.126;2023-10-31T06:08:40;2.00;;;1.30;;
9140;SDS011;46330;50.822;7.126;2023-10-31T06:11:08;1.63;;;1.30;;
9140;SDS011;46330;50.822;7.126;2023-10-31T06:13:39;1.80;;;1.17;;
9140;SDS011;46330;50.822;7.126;2023-10-31T06:16:07;1.52;;;1.40;;
9140;SDS011;46330;50.822;7.126;2023-10-31T06:18:35;4.60;;;1.30;;
9140;SDS011;46330;50.822;7.126;2023-10-31T06:21:06;1.05;;;1.00;;
9140;SDS011;46330;50.822;7.126;2023-10-31T06:23:37;2.15;;;1.10;;
9140;SDS011;46330;50.822;7.126;2023-10-31T06:26:06;2.08;;;1.20;;
9140;SDS011;46330;50.822;7.126;2023-10-31T06:28:34;1.55;;;1.30;;
9140;SDS011;46330;50.822;7.126;2023-10-31T06:31:10;3.40;;;1.40;;
9140;SDS011;46330;50.822;7.126;2023-10-31T06:33:38;1.40;;;1.30;;
9140;SDS011;46330;50.822;7.126;2023-10-31T06:36:07;1.40;;;1.30;;
9140;SDS011;46330;50.822;7.126;2023-10-31T06:38:37;1.40;;;1.30;;
9140;SDS011;46330;50.822;7.126;2023-10-31T06:41:05;2.28;;;1.50;;
9140;SDS011;46330;50.822;7.126;2023-10-31T06:43:33;1.50;;;1.40;;
9140;SDS011;46330;50.822;7.126;2023-10-31T06:46:01;7.63;;;3.65;;
9140;SDS011;46330;50.822;7.126;2023-10-31T06:48:31;2.70;;;1.80;;
9140;SDS011;46330;50.822;7.126;2023-10-31T06:50:59;1.85;;;1.35;;
9140;SDS011;46330;50.822;7.126;2023-10-31T06:53:27;1.60;;;1.50;;
9140;SDS011;46330;50.822;7.126;2023-10-31T06:55:56;3.55;;;1.45;;
9140;SDS011;46330;50.822;7.126;2023-10-31T06:58:24;1.48;;;1.38;;
9140;SDS011;46330;50.822;7.126;2023-10-31T07:00:52;2.08;;;1.65;;
9140;SDS011;46330;50.822;7.126;2023-10-31T07:03:21;2.70;;;1.50;;
9140;SDS011;46330;50.822;7.126;2023-10-31T07:05:49;1.80;;;1.52;;
9140;SDS011;46330;50.822;7.126;2023-10-31T07:08:17;2.58;;;1.70;;
9140;SDS011;46330;50.822;7.126;2023-10-31T07:10:46;2.55;;;1.70;;
9140;SDS011;46330;50.822;7.126;2023-10-31T07:13:15;1.90;;;1.70;;
9140;SDS011;46330;50.822;7.126;2023-10-31T07:15:44;2.13;;;1.70;;
9140;SDS011;46330;50.822;7.126;2023-10-31T07:18:13;3.15;;;1.90;;
9140;SDS011;46330;50.822;7.126;2023-10-31T07:20:41;2.13;;;1.50;;
9140;SDS011;46330;50.822;7.126;2023-10-31T07:23:08;3.30;;;1.60;;
9140;SDS011;46330;50.822;7.126;2023-10-31T07:25:36;2.45;;;1.80;;
9140;SDS011;46330;50.822;7.126;2023-10-31T07:28:04;1.67;;;1.55;;
9140;SDS011;46330;50.822;7.126;2023-10-31T07:30:34;1.65;;;1.55;;
9140;SDS011;46330;50.822;7.126;2023-10-31T07:33:01;3.03;;;1.70;;
9140;SDS011;46330;50.822;7.126;2023-10-31T07:35:30;2.28;;;1.70;;
9140;SDS011;46330;50.822;7.126;2023-10-31T07:37:58;3.58;;;2.00;;
9140;SDS011;46330;50.822;7.126;2023-10-31T07:40:26;2.03;;;1.70;;
9140;SDS011;46330;50.822;7.126;2023-10-31T07:42:54;2.35;;;1.63;;
9140;SDS011;46330;50.822;7.126;2023-10-31T07:45:22;2.65;;;1.80;;
9140;SDS011;46330;50.822;7.126;2023-10-31T07:47:52;1.70;;;1.60;;
9140;SDS011;46330;50.822;7.126;2023-10-31T07:50:19;2.42;;;2.08;;
9140;SDS011;46330;50.822;7.126;2023-10-31T07:52:47;2.95;;;2.15;;
9140;SDS011;46330;50.822;7.126;2023-10-31T07:55:15;4.10;;;1.90;;
9140;SDS011;46330;50.822;7.126;2023-10-31T07:57:43;5.70;;;2.13;;
9140;SDS011;46330;50.822;7.126;2023-10-31T08:00:12;4.72;;;2.17;;
9140;SDS011;46330;50.822;7.126;2023-10-31T08:02:40;3.25;;;1.67;;
9140;SDS011;46330;50.822;7.126;2023-10-31T08:05:10;3.35;;;1.80;;
9140;SDS011;46330;50.822;7.126;2023-10-31T08:07:38;3.80;;;2.00;;
9140;SDS011;46330;50.822;7.126;2023-10-31T08:10:06;2.88;;;1.52;;
9140;SDS011;46330;50.822;7.126;2023-10-31T08:12:35;2.90;;;1.60;;
9140;SDS011;46330;50.822;7.126;2023-10-31T08:15:03;2.88;;;1.48;;
9140;SDS011;46330;50.822;7.126;2023-10-31T08:17:31;2.78;;;1.70;;
9140;SDS011;46330;50.822;7.126;2023-10-31T08:19:59;3.55;;;1.80;;
9140;SDS011;46330;50.822;7.126;2023-10-31T08:22:31;2.33;;;1.60;;
9140;SDS011;46330;50.822;7.126;2023-10-31T08:24:59;2.92;;;1.80;;
9140;SDS011;46330;50.822;7.126;2023-10-31T08:27:26;2.85;;;1.75;;
9140;SDS011;46330;50.822;7.126;2023-10-31T08:29:54;3.92;;;1.60;;
9140;SDS011;46330;50.822;7.126;2023-10-31T08:32:22;1.67;;;1.30;;
9140;SDS011;46330;50.822;7.126;2023-10-31T08:34:52;3.75;;;1.60;;
9140;SDS011;46330;50.822;7.126;2023-10-31T08:37:20;2.58;;;1.40;;
9140;SDS011;46330;50.822;7.126;2023-10-31T08:39:50;1.30;;;1.20;;
9140;SDS011;46330;50.822;7.126;2023-10-31T08:42:17;1.98;;;1.20;;
9140;SDS011;46330;50.822;7.126;2023-10-31T08:44:46;4.03;;;1.30;;
9140;SDS011;46330;50.822;7.126;2023-10-31T08:47:14;1.40;;;1.15;;
9140;SDS011;46330;50.822;7.126;2023-10-31T08:49:42;2.42;;;1.15;;
9140;SDS011;46330;50.822;7.126;2023-10-31T08:52:10;3.28;;;1.20;;
9140;SDS011;46330;50.822;7.126;2023-10-31T08:54:38;1.50;;;1.10;;
9140;SDS011;46330;50.822;7.126;2023-10-31T08:57:07;2.83;;;1.40;;
9140;SDS011;46330;50.822;7.126;2023-10-31T08:59:35;3.42;;;1.40;;
9140;SDS011;46330;50.822;7.126;2023-10-31T09:02:03;3.95;;;1.30;;
9140;SDS011;46330;50.822;7.126;2023-10-31T09:04:31;1.27;;;1.17;;
9140;SDS011;46330;50.822;7.126;2023-10-31T09:06:59;2.25;;;1.30;;
9140;SDS011;46330;50.822;7.126;2023-10-31T09:09:27;1.85;;;1.45;;
9140;SDS011;46330;50.822;7.126;2023-10-31T09:11:55;2.80;;;1.25;;
9140;SDS011;46330;50.822;7.126;2023-10-31T09:14:24;1.67;;;1.00;;
9140;SDS011;46330;50.822;7.126;2023-10-31T09:16:52;1.42;;;0.98;;
9140;SDS011;46330;50.822;7.126;2023-10-31T09:19:20;1.27;;;1.08;;
9140;SDS011;46330;50.822;7.126;2023-10-31T09:21:48;1.73;;;1.20;;
9140;SDS011;46330;50.822;7.126;2023-10-31T09:24:16;3.78;;;1.38;;
9140;SDS011;46330;50.822;7.126;2023-10-31T09:26:44;2.28;;;1.27;;
9140;SDS011;46330;50.822;7.126;2023-10-31T09:29:12;1.08;;;1.00;;
9140;SDS011;46330;50.822;7.126;2023-10-31T09:31:56;1.38;;;1.00;;
9140;SDS011;46330;50.822;7.126;2023-10-31T09:34:25;2.60;;;1.02;;
9140;SDS011;46330;50.822;7.126;2023-10-31T09:36:53;2.33;;;1.25;;
9140;SDS011;46330;50.822;7.126;2023-10-31T09:39:22;2.25;;;1.45;;
9140;SDS011;46330;50.822;7.126;2023-10-31T09:41:50;2.75;;;1.25;;
9140;SDS011;46330;50.822;7.126;2023-10-31T09:44:20;1.45;;;1.00;;
9140;SDS011;46330;50.822;7.126;2023-10-31T09:46:49;1.65;;;1.00;;
9140;SDS011;46330;50.822;7.126;2023-10-31T09:49:20;2.75;;;1.08;;
9140;SDS011;46330;50.822;7.126;2023-10-31T09:51:48;2.72;;;1.20;;
9140;SDS011;46330;50.822;7.126;2023-10-31T09:54:16;2.97;;;1.05;;
9140;SDS011;46330;50.822;7.126;2023-10-31T09:56:45;3.22;;;1.20;;
9140;SDS011;46330;50.822;7.126;2023-10-31T09:59:13;1.90;;;0.80;;
9140;SDS011;46330;50.822;7.126;2023-10-31T10:01:43;2.35;;;1.10;;
9140;SDS011;46330;50.822;7.126;2023-10-31T10:04:11;2.13;;;1.00;;
9140;SDS011;46330;50.822;7.126;2023-10-31T10:06:48;0.98;;;0.80;;
9140;SDS011;46330;50.822;7.126;2023-10-31T10:09:17;1.38;;;0.63;;
9140;SDS011;46330;50.822;7.126;2023-10-31T10:11:45;1.38;;;0.88;;
9140;SDS011;46330;50.822;7.126;2023-10-31T10:14:14;2.50;;;1.02;;
9140;SDS011;46330;50.822;7.126;2023-10-31T10:16:43;1.38;;;0.80;;
9140;SDS011;46330;50.822;7.126;2023-10-31T10:19:15;2.15;;;1.17;;
9140;SDS011;46330;50.822;7.126;2023-10-31T10:21:47;1.52;;;0.88;;
9140;SDS011;46330;50.822;7.126;2023-10-31T10:24:16;2.17;;;0.80;;
9140;SDS011;46330;50.822;7.126;2023-10-31T10:26:45;0.95;;;0.50;;
9140;SDS011;46330;50.822;7.126;2023-10-31T10:29:13;3.53;;;0.70;;
9140;SDS011;46330;50.822;7.126;2023-10-31T10:31:42;1.70;;;0.40;;
9140;SDS011;46330;50.822;7.126;2023-10-31T10:34:13;1.58;;;0.70;;
9140;SDS011;46330;50.822;7.126;2023-10-31T10:36:45;1.85;;;0.50;;
9140;SDS011;46330;50.822;7.126;2023-10-31T10:39:17;2.22;;;0.52;;
9140;SDS011;46330;50.822;7.126;2023-10-31T10:41:50;1.95;;;0.60;;
9140;SDS011;46330;50.822;7.126;2023-10-31T10:44:27;0.98;;;0.60;;
9140;SDS011;46330;50.822;7.126;2023-10-31T10:47:01;1.85;;;0.60;;
9140;SDS011;46330;50.822;7.126;2023-10-31T10:49:32;1.38;;;0.40;;
9140;SDS011;46330;50.822;7.126;2023-10-31T10:52:08;1.85;;;0.68;;
9140;SDS011;46330;50.822;7.126;2023-10-31T10:54:45;0.98;;;0.70;;
9140;SDS011;46330;50.822;7.126;2023-10-31T10:57:21;1.25;;;0.70;;
9140;SDS011;46330;50.822;7.126;2023-10-31T11:00:01;0.93;;;0.50;;
9140;SDS011;46330;50.822;7.126;2023-10-31T11:02:32;1.25;;;0.50;;
9140;SDS011;46330;50.822;7.126;2023-10-31T11:05:00;2.15;;;0.75;;
9140;SDS011;46330;50.822;7.126;2023-10-31T11:07:31;3.35;;;0.80;;
9140;SDS011;46330;50.822;7.126;2023-10-31T11:10:00;1.05;;;0.65;;
9140;SDS011;46330;50.822;7.126;2023-10-31T11:12:29;1.65;;;0.88;;
9140;SDS011;46330;50.822;7.126;2023-10-31T11:14:57;3.75;;;1.00;;
9140;SDS011;46330;50.822;7.126;2023-10-31T11:17:27;2.70;;;1.10;;
9140;SDS011;46330;50.822;7.126;2023-10-31T11:19:57;2.53;;;0.75;;
9140;SDS011;46330;50.822;7.126;2023-10-31T11:22:37;1.17;;;1.00;;
9140;SDS011;46330;50.822;7.126;2023-10-31T11:25:07;3.20;;;1.17;;
9140;SDS011;46330;50.822;7.126;2023-10-31T11:27:48;0.80;;;0.80;;
9140;SDS011;46330;50.822;7.126;2023-10-31T11:30:20;0.80;;;0.75;;
9140;SDS011;46330;50.822;7.126;2023-10-31T11:32:51;10.63;;;1.10;;
9140;SDS011;46330;50.822;7.126;2023-10-31T11:35:19;2.08;;;0.90;;
9140;SDS011;46330;50.822;7.126;2023-10-31T11:37:52;1.67;;;1.05;;
9140;SDS011;46330;50.822;7.126;2023-10-31T11:40:29;3.20;;;1.20;;
9140;SDS011;46330;50.822;7.126;2023-10-31T11:42:59;1.00;;;0.90;;
9140;SDS011;46330;50.822;7.126;2023-10-31T11:45:33;1.45;;;0.80;;
9140;SDS011;46330;50.822;7.126;2023-10-31T11:48:03;2.80;;;0.90;;
9140;SDS011;46330;50.822;7.126;2023-10-31T11:50:32;1.60;;;0.70;;
9140;SDS011;46330;50.822;7.126;2023-10-31T11:53:03;3.53;;;0.95;;
9140;SDS011;46330;50.822;7.126;2023-10-31T11:55:33;1.02;;;0.70;;
9140;SDS011;46330;50.822;7.126;2023-10-31T11:58:12;2.30;;;0.82;;
9140;SDS011;46330;50.822;7.126;2023-10-31T12:00:44;1.25;;;0.77;;
9140;SDS011;46330;50.822;7.126;2023-10-31T12:03:14;2.30;;;0.80;;
9140;SDS011;46330;50.822;7.126;2023-10-31T12:05:52;1.77;;;0.63;;
9140;SDS011;46330;50.822;7.126;2023-10-31T12:08:26;1.35;;;0.73;;
9140;SDS011;46330;50.822;7.126;2023-10-31T12:11:08;2.30;;;0.63;;
9140;SDS011;46330;50.822;7.126;2023-10-31T12:13:37;3.22;;;1.13;;
9140;SDS011;46330;50.822;7.126;2023-10-31T12:16:06;1.73;;;1.23;;
9140;SDS011;46330;50.822;7.126;2023-10-31T12:18:36;2.47;;;0.88;;
9140;SDS011;46330;50.822;7.126;2023-10-31T12:21:06;2.38;;;0.80;;
9140;SDS011;46330;50.822;7.126;2023-10-31T12:23:36;2.60;;;0.90;;
9140;SDS011;46330;50.822;7.126;2023-10-31T12:26:04;1.90;;;0.70;;
9140;SDS011;46330;50.822;7.126;2023-10-31T12:28:32;1.08;;;0.85;;
9140;SDS011;46330;50.822;7.126;2023-10-31T12:31:00;1.55;;;0.90;;
9140;SDS011;46330;50.822;7.126;2023-10-31T12:33:30;4.78;;;0.90;;
9140;SDS011;46330;50.822;7.126;2023-10-31T12:35:58;2.20;;;0.80;;
9140;SDS011;46330;50.822;7.126;2023-10-31T12:38:27;2.90;;;1.33;;
9140;SDS011;46330;50.822;7.126;2023-10-31T12:40:57;3.63;;;1.42;;
9140;SDS011;46330;50.822;7.126;2023-10-31T12:43:26;2.33;;;0.82;;
9140;SDS011;46330;50.822;7.126;2023-10-31T12:45:56;3.10;;;0.93;;
9140;SDS011;46330;50.822;7.126;2023-10-31T12:48:24;1.20;;;0.60;;
9140;SDS011;46330;50.822;7.126;2023-10-31T12:51:05;1.00;;;0.73;;
9140;SDS011;46330;50.822;7.126;2023-10-31T12:53:34;2.75;;;1.00;;
9140;SDS011;46330;50.822;7.126;2023-10-31T12:56:04;2.05;;;0.68;;
9140;SDS011;46330;50.822;7.126;2023-10-31T12:58:33;2.03;;;0.73;;
9140;SDS011;46330;50.822;7.126;2023-10-31T13:01:01;1.52;;;0.90;;
9140;SDS011;46330;50.822;7.126;2023-10-31T13:03:29;1.50;;;0.70;;
9140;SDS011;46330;50.822;7.126;2023-10-31T13:05:57;3.75;;;1.20;;
9140;SDS011;46330;50.822;7.126;2023-10-31T13:08:25;2.10;;;0.70;;
9140;SDS011;46330;50.822;7.126;2023-10-31T13:10:53;2.85;;;0.80;;
9140;SDS011;46330;50.822;7.126;2023-10-31T13:13:25;2.83;;;1.10;;
9140;SDS011;46330;50.822;7.126;2023-10-31T13:15:53;8.00;;;1.45;;
9140;SDS011;46330;50.822;7.126;2023-10-31T13:18:21;2.88;;;0.80;;
9140;SDS011;46330;50.822;7.126;2023-10-31T13:20:49;4.30;;;0.95;;
9140;SDS011;46330;50.822;7.126;2023-10-31T13:23:17;2.97;;;0.88;;
9140;SDS011;46330;50.822;7.126;2023-10-31T13:25:48;1.13;;;0.60;;
9140;SDS011;46330;50.822;7.126;2023-10-31T13:28:16;4.82;;;1.08;;
9140;SDS011;46330;50.822;7.126;2023-10-31T13:30:45;2.58;;;0.90;;
9140;SDS011;46330;50.822;7.126;2023-10-31T13:33:15;5.18;;;1.08;;
9140;SDS011;46330;50.822;7.126;2023-10-31T13:35:43;1.67;;;0.75;;
9140;SDS011;46330;50.822;7.126;2023-10-31T13:38:11;2.97;;;0.82;;
9140;SDS011;46330;50.822;7.126;2023-10-31T13:40:39;3.67;;;0.98;;
9140;SDS011;46330;50.822;7.126;2023-10-31T13:43:07;3.85;;;1.00;;
9140;SDS011;46330;50.822;7.126;2023-10-31T13:45:35;3.50;;;1.17;;
9140;SDS011;46330;50.822;7.126;2023-10-31T13:48:05;6.20;;;1.00;;
9140;SDS011;46330;50.822;7.126;2023-10-31T13:50:33;3.47;;;0.70;;
9140;SDS011;46330;50.822;7.126;2023-10-31T13:53:01;2.35;;;0.77;;
9140;SDS011;46330;50.822;7.126;2023-10-31T13:55:31;3.92;;;1.30;;
9140;SDS011;46330;50.822;7.126;2023-10-31T13:57:59;2.00;;;0.80;;
9140;SDS011;46330;50.822;7.126;2023-10-31T14:00:27;4.45;;;1.25;;
9140;SDS011;46330;50.822;7.126;2023-10-31T14:02:56;3.72;;;0.90;;
9140;SDS011;46330;50.822;7.126;2023-10-31T14:05:25;2.95;;;0.80;;
9140;SDS011;46330;50.822;7.126;2023-10-31T14:07:53;4.05;;;1.15;;
9140;SDS011;46330;50.822;7.126;2023-10-31T14:10:21;2.63;;;1.10;;
9140;SDS011;46330;50.822;7.126;2023-10-31T14:12:50;5.32;;;2.03;;
9140;SDS011;46330;50.822;7.126;2023-10-31T14:15:19;5.50;;;1.08;;
9140;SDS011;46330;50.822;7.126;2023-10-31T14:20:16;3.03;;;1.20;;
9140;SDS011;46330;50.822;7.126;2023-10-31T14:22:49;2.67;;;1.10;;
9140;SDS011;46330;50.822;7.126;2023-10-31T14:25:18;3.08;;;0.98;;
9140;SDS011;46330;50.822;7.126;2023-10-31T14:27:45;4.28;;;1.15;;
9140;SDS011;46330;50.822;7.126;2023-10-31T14:30:13;1.65;;;0.88;;
9140;SDS011;46330;50.822;7.126;2023-10-31T14:32:42;3.08;;;0.82;;
9140;SDS011;46330;50.822;7.126;2023-10-31T14:35:10;5.00;;;1.15;;
9140;SDS011;46330;50.822;7.126;2023-10-31T14:37:38;3.42;;;0.90;;
9140;SDS011;46330;50.822;7.126;2023-10-31T14:40:08;4.78;;;2.03;;
9140;SDS011;46330;50.822;7.126;2023-10-31T14:42:36;3.13;;;1.20;;
9140;SDS011;46330;50.822;7.126;2023-10-31T14:45:05;2.33;;;1.00;;
9140;SDS011;46330;50.822;7.126;2023-10-31T14:47:33;4.03;;;0.90;;
9140;SDS011;46330;50.822;7.126;2023-10-31T14:50:01;2.90;;;1.02;;
9140;SDS011;46330;50.822;7.126;2023-10-31T14:52:29;3.08;;;1.00;;
9140;SDS011;46330;50.822;7.126;2023-10-31T14:54:58;4.30;;;1.10;;
9140;SDS011;46330;50.822;7.126;2023-10-31T14:57:27;4.10;;;1.50;;
9140;SDS011;46330;50.822;7.126;2023-10-31T14:59:55;3.13;;;1.00;;
9140;SDS011;46330;50.822;7.126;2023-10-31T15:02:23;3.42;;;1.00;;
9140;SDS011;46330;50.822;7.126;2023-10-31T15:04:51;5.88;;;1.30;;
9140;SDS011;46330;50.822;7.126;2023-10-31T15:07:19;6.43;;;0.90;;
9140;SDS011;46330;50.822;7.126;2023-10-31T15:09:47;1.77;;;1.00;;
9140;SDS011;46330;50.822;7.126;2023-10-31T15:12:15;3.83;;;0.90;;
9140;SDS011;46330;50.822;7.126;2023-10-31T15:14:45;4.53;;;1.20;;